»·PEaware :: N5491J KSBD-KVCV

N5491J :: KSBD-KVCV

FLIGHT INFORMATION

Flight Status: Arrived
Operator: Privately registered:
United States
More flights under this callsign
Pilot: David L. (16466)
Aircraft: CESSNA 172 SKYHAWK
(C172)
More flights by this aircraft type
Origin: KSBD San Bernardino Intl
United States
Destination: KVCV Socal Logistics
United States
More flights between these airports :: More routes between these airports
Route: PDZ V442 APLES
File this flight plan on PilotEdge
Remarks:
Altitude:
(Current/Filed)
9,000ft
Speed:
(Current/Filed)
110kts
Departed: 03-Oct-18 02:57 PM
Arrived: 03-Oct-18 04:24 PM
Distance/Time
Traveled:
30nm/1:27
Distance/Time
To Go:
Arrived

Flight Plot

Page will automatically refresh every two minutes.


Map Options




Map Legend


Flown Route
Filed Route
Departure Airport
Arrival Airport
Navaid (VOR, NDB)
Fix

Horizontal Profiles

Position Reports

Time Latitude Longitude Heading Altitude Ground
Speed
03-Oct-18 14:38 33.671189 -117.868027 211 60ft 0kts
03-Oct-18 14:39 33.671189 -117.868027 211 60ft 0kts
03-Oct-18 14:40 33.671189 -117.868027 211 60ft 0kts
03-Oct-18 14:41 33.671189 -117.868027 211 60ft 0kts
03-Oct-18 14:43 33.671189 -117.868027 211 60ft 0kts
03-Oct-18 14:44 33.671189 -117.868027 211 60ft 0kts
03-Oct-18 14:46 33.671189 -117.868027 211 60ft 0kts
03-Oct-18 14:47 33.671189 -117.868027 211 60ft 0kts
03-Oct-18 14:48 33.671189 -117.868027 211 60ft 0kts
03-Oct-18 14:49 33.671189 -117.868027 211 60ft 0kts
03-Oct-18 14:50 33.671189 -117.868027 211 60ft 0kts
03-Oct-18 14:51 33.671189 -117.868027 211 60ft 0kts
03-Oct-18 14:52 33.671189 -117.868027 211 60ft 0kts
03-Oct-18 14:53 33.671189 -117.868027 211 60ft 0kts
03-Oct-18 14:54 33.673571 -117.866979 333 60ft 16kts
03-Oct-18 14:55 33.678314 -117.864422 27 60ft 25kts
03-Oct-18 14:56 33.679995 -117.863697 297 60ft 0kts
03-Oct-18 14:57 33.679995 -117.863697 297 60ft 0kts
03-Oct-18 14:58 33.680081 -117.863925 283 60ft 8kts
03-Oct-18 14:59 33.664515 -117.875389 214 647ft 93kts
03-Oct-18 15:00 33.646653 -117.864806 74 1018ft 97kts
03-Oct-18 15:01 33.667886 -117.847013 34 909ft 87kts
03-Oct-18 15:02 33.686416 -117.840882 302 699ft 90kts
03-Oct-18 15:03 33.683753 -117.861896 208 197ft 66kts
03-Oct-18 15:04 33.676857 -117.865577 118 60ft 0kts
03-Oct-18 15:05 33.676678 -117.865508 191 60ft 6kts
03-Oct-18 15:06 33.672454 -117.867904 208 60ft 16kts
03-Oct-18 15:30 34.102425 -117.224717 94 1146ft 0kts
03-Oct-18 15:31 34.102425 -117.224717 94 1146ft 0kts
03-Oct-18 15:32 34.102425 -117.224717 94 1146ft 0kts
03-Oct-18 15:33 34.102425 -117.224717 94 1146ft 0kts
03-Oct-18 15:34 34.102425 -117.224716 93 1146ft 0kts
03-Oct-18 15:35 34.102425 -117.224716 93 1146ft 0kts
03-Oct-18 15:36 34.102425 -117.224716 93 1146ft 0kts
03-Oct-18 15:37 34.101764 -117.224632 184 1146ft 16kts
03-Oct-18 15:38 34.100727 -117.219731 160 1159ft 0kts
03-Oct-18 15:39 34.100727 -117.219730 160 1159ft 0kts
03-Oct-18 15:40 34.100727 -117.219730 160 1159ft 0kts
03-Oct-18 15:41 34.100727 -117.219730 160 1159ft 0kts
03-Oct-18 15:42 34.097913 -117.225775 249 1251ft 67kts
03-Oct-18 15:43 34.090643 -117.248586 234 2147ft 80kts
03-Oct-18 15:44 34.076721 -117.269550 235 3096ft 83kts
03-Oct-18 15:45 34.063187 -117.291352 235 4044ft 77kts
03-Oct-18 15:46 34.051147 -117.310772 234 4979ft 71kts
03-Oct-18 15:47 34.039831 -117.329103 234 5856ft 66kts
03-Oct-18 15:48 34.028764 -117.347131 233 6613ft 70kts
03-Oct-18 15:49 34.016864 -117.366751 232 7297ft 75kts
03-Oct-18 15:50 34.021331 -117.386232 353 7965ft 101kts
03-Oct-18 15:51 34.048690 -117.377238 10 8648ft 102kts
03-Oct-18 15:52 34.077996 -117.367453 11 9008ft 124kts
03-Oct-18 15:53 34.112714 -117.356414 11 9006ft 129kts
03-Oct-18 15:54 34.147607 -117.345315 11 9006ft 129kts
03-Oct-18 15:55 34.182677 -117.334162 11 8979ft 130kts
03-Oct-18 15:56 34.217484 -117.323064 11 8979ft 129kts
03-Oct-18 15:57 34.252316 -117.312072 9 8980ft 129kts
03-Oct-18 15:58 34.286901 -117.299277 18 8983ft 131kts
03-Oct-18 15:59 34.320714 -117.282446 23 8986ft 132kts
03-Oct-18 16:00 34.354001 -117.263425 26 8987ft 132kts
03-Oct-18 16:01 34.387159 -117.243918 26 8989ft 133kts
03-Oct-18 16:02 34.420429 -117.224488 26 8990ft 133kts
03-Oct-18 16:03 34.453791 -117.204991 27 8991ft 133kts
03-Oct-18 16:04 34.487130 -117.185485 27 8991ft 128kts
03-Oct-18 16:05 34.517257 -117.167853 27 8994ft 119kts
03-Oct-18 16:06 34.547899 -117.152901 10 9018ft 115kts
03-Oct-18 16:07 34.580580 -117.146616 6 8375ft 119kts
03-Oct-18 16:08 34.613588 -117.143241 2 7692ft 120kts
03-Oct-18 16:09 34.645348 -117.150555 343 7040ft 118kts
03-Oct-18 16:10 34.675682 -117.163166 332 6647ft 114kts
03-Oct-18 16:11 34.703662 -117.182080 320 6589ft 112kts
03-Oct-18 16:12 34.729140 -117.204575 312 6627ft 113kts
03-Oct-18 16:13 34.749575 -117.231217 295 6635ft 105kts
03-Oct-18 16:14 34.766375 -117.259226 290 6603ft 96kts
03-Oct-18 16:15 34.781479 -117.288264 285 6627ft 101kts
03-Oct-18 16:16 34.790235 -117.319969 281 6007ft 103kts
03-Oct-18 16:17 34.792805 -117.350876 225 5292ft 83kts
03-Oct-18 16:18 34.776772 -117.368789 212 5254ft 73kts
03-Oct-18 16:19 34.759651 -117.385557 194 4946ft 81kts
03-Oct-18 16:20 34.738524 -117.387388 178 4324ft 75kts
03-Oct-18 16:21 34.717335 -117.387803 179 4325ft 76kts
03-Oct-18 16:22 34.695865 -117.387858 177 4326ft 66kts
03-Oct-18 16:23 34.674448 -117.387358 181 3896ft 75kts
03-Oct-18 16:24 34.653676 -117.387041 190 3482ft 79kts
03-Oct-18 16:25 34.634146 -117.386563 177 3110ft 69kts
03-Oct-18 16:26 34.618870 -117.386726 181 2816ft 29kts
03-Oct-18 16:27 34.612188 -117.386717 186 2824ft 35kts
03-Oct-18 16:28 34.603360 -117.386592 181 2838ft 25kts
03-Oct-18 16:29 34.595418 -117.386465 172 2854ft 20kts
03-Oct-18 16:30 34.592607 -117.381251 132 2860ft 25kts
03-Oct-18 16:31 34.589470 -117.377339 132 2869ft 7kts

Navigation Log

Ident Type
1. KSBD Airport
2. PDZ Navaid
3. APLES Fix
4. KVCV Airport